Time;durP1;ratioP1;P1;durP2;ratioP2;P2;SDS_P1;SDS_P2;PMS_P1;PMS_P2;Temp;Humidity;BMP_temperature;BMP_pressure;BME280_temperature;BME280_humidity;BME280_pressure;Samples;Min_cycle;Max_cycle;Signal;HPM_P1;HPM_P2
2022/09/08 00:00:58;;;;;;;;;53.00;44.00;;;;;22.76;34.89;98642.53;6153431;28;96846;-54
2022/09/08 00:04:03;;;;;;;;;51.25;42.75;;;;;22.75;34.87;98645.59;6160837;28;97431;-54
2022/09/08 00:07:08;;;;;;;;;49.80;42.20;;;;;22.73;34.90;98643.13;6161625;28;98165;-54
2022/09/08 00:10:12;;;;;;;;;46.75;39.75;;;;;22.71;35.11;98644.56;6159587;28;97506;-56
2022/09/08 00:13:15;;;;;;;;;48.80;41.00;;;;;22.70;35.06;98649.25;6159397;28;97214;-58
2022/09/08 00:16:19;;;;;;;;;49.00;41.00;;;;;22.68;34.95;98645.97;6159703;28;97518;-55
2022/09/08 00:19:23;;;;;;;;;50.20;42.20;;;;;22.67;34.80;98647.09;6158933;28;97111;-54
2022/09/08 00:22:27;;;;;;;;;43.00;37.00;;;;;22.63;34.69;98643.31;6160263;28;97117;-56
2022/09/08 00:25:31;;;;;;;;;45.00;37.00;;;;;22.62;35.01;98644.47;6160497;28;97240;-58
2022/09/08 00:28:35;;;;;;;;;53.60;45.00;;;;;22.60;34.74;98643.94;6160610;28;97240;-55
2022/09/08 00:31:39;;;;;;;;;51.40;43.20;;;;;22.51;34.94;98642.22;6159539;28;97535;-56
2022/09/08 00:34:42;;;;;;;;;44.00;38.00;;;;;22.48;34.72;98642.81;6160379;28;96694;-59
2022/09/08 00:37:47;;;;;;;;;48.60;40.60;;;;;22.41;34.91;98638.53;6160499;28;97494;-62
2022/09/08 00:40:52;;;;;;;;;49.40;41.40;;;;;22.40;34.90;98639.66;6161343;28;97435;-58
2022/09/08 00:44:00;;;;;;;;;61.67;50.83;;;;;22.34;35.01;98635.38;6159568;28;97375;-59
2022/09/08 00:47:06;;;;;;;;;54.50;45.50;;;;;22.31;34.98;98636.00;6160490;28;97147;-57
2022/09/08 00:50:16;;;;;;;;;53.00;44.50;;;;;22.31;35.07;98629.69;6160864;28;96708;-57
2022/09/08 00:53:21;;;;;;;;;51.60;43.60;;;;;22.30;35.44;98628.06;6161251;28;96874;-59
2022/09/08 00:56:26;;;;;;;;;41.83;36.50;;;;;22.25;35.15;98633.66;6160135;28;97637;-57
2022/09/08 00:59:34;;;;;;;;;50.00;41.60;;;;;22.19;35.42;98635.66;6160138;28;97407;-56
2022/09/08 01:02:37;;;;;;;;;59.67;49.17;;;;;22.17;35.58;98645.34;6160736;28;97416;-55
2022/09/08 01:05:52;;;;;;;;;52.50;44.50;;;;;22.15;35.68;98637.41;6161558;28;97487;-59
2022/09/08 01:15:46;;;;;;;;;47.00;40.20;;;;;22.11;36.04;98641.88;6163608;28;97428;-55
2022/09/08 01:18:49;;;;;;;;;47.00;40.00;;;;;22.11;35.90;98638.31;6150702;28;97424;-55
2022/09/08 01:22:14;;;;;;;;;52.00;43.67;;;;;21.81;35.88;98599.28;6162535;28;97463;-57
2022/09/08 01:25:37;;;;;;;;;52.00;44.00;;;;;22.04;36.29;98624.97;6163996;28;97442;-57
2022/09/08 01:28:47;;;;;;;;;46.00;39.67;;;;;21.89;36.29;98603.28;6163815;28;97529;-57
2022/09/08 01:31:53;;;;;;;;;35.00;32.00;;;;;22.02;36.29;98619.81;6163595;28;97810;-57
2022/09/08 01:34:57;;;;;;;;;52.60;43.20;;;;;22.00;35.97;98619.28;6163419;28;96522;-57
2022/09/08 01:38:00;;;;;;;;;57.60;47.40;;;;;21.97;35.78;98619.06;6161081;28;96552;-58
2022/09/08 01:41:04;;;;;;;;;45.00;38.00;;;;;21.95;35.83;98621.28;6163161;28;97463;-57
2022/09/08 01:44:08;;;;;;;;;53.00;44.50;;;;;21.90;36.03;98624.91;6163679;28;96647;-60
2022/09/08 01:47:12;;;;;;;;;50.00;42.25;;;;;21.90;35.96;98627.66;6163341;28;97757;-57
2022/09/08 01:50:15;;;;;;;;;44.80;38.80;;;;;21.90;35.92;98624.91;6163601;28;97490;-55
2022/09/08 01:53:19;;;;;;;;;45.80;38.80;;;;;21.90;36.36;98621.34;6162106;28;97372;-60
2022/09/08 01:56:23;;;;;;;;;49.40;41.40;;;;;21.89;36.27;98619.75;6159382;28;97796;-57
2022/09/08 01:59:27;;;;;;;;;41.40;34.60;;;;;21.84;35.85;98617.91;6161058;28;97975;-57
2022/09/08 02:02:33;;;;;;;;;51.40;43.60;;;;;21.81;35.80;98609.44;6160920;28;97409;-58
2022/09/08 02:05:38;;;;;;;;;48.67;41.50;;;;;21.78;36.00;98612.81;6160789;28;98065;-61
2022/09/08 02:08:44;;;;;;;;;38.00;34.00;;;;;21.76;36.07;98612.28;6160910;28;98107;-59
2022/09/08 02:11:48;;;;;;;;;58.80;48.80;;;;;21.70;36.49;98617.03;6162088;28;97396;-59
2022/09/08 02:14:53;;;;;;;;;50.67;42.00;;;;;21.66;36.35;98616.00;6157439;28;97070;-59
2022/09/08 02:17:58;;;;;;;;;46.75;40.00;;;;;21.58;36.64;98611.22;6162617;28;96812;-55
2022/09/08 02:21:13;;;;;;;;;68.83;59.33;;;;;21.52;36.50;98607.75;6162300;28;97734;-55
2022/09/08 02:24:16;;;;;;;;;49.50;41.67;;;;;21.48;36.44;98603.97;6162516;28;96812;-55
2022/09/08 02:27:19;;;;;;;;;63.33;51.83;;;;;21.42;36.64;98598.88;6159842;28;96567;-58
2022/09/08 02:30:24;;;;;;;;;48.00;41.00;;;;;21.41;36.73;98599.97;6161906;28;98259;-60
2022/09/08 02:33:28;;;;;;;;;52.20;44.00;;;;;21.39;36.64;98597.53;6160524;28;97730;-56
2022/09/08 02:36:31;;;;;;;;;50.00;42.40;;;;;21.34;36.66;98600.38;6162986;28;97088;-54
2022/09/08 02:39:35;;;;;;;;;46.00;39.40;;;;;21.31;36.63;98603.69;6162768;28;97488;-55
2022/09/08 02:42:39;;;;;;;;;50.00;42.00;;;;;21.30;37.08;98602.09;6162992;28;96244;-57
2022/09/08 02:45:44;;;;;;;;;43.80;37.20;;;;;21.24;37.15;98597.78;6162458;28;97049;-58
2022/09/08 02:48:48;;;;;;;;;47.40;40.60;;;;;21.14;37.72;98593.28;6161341;28;96960;-59
2022/09/08 02:51:51;;;;;;;;;53.60;44.80;;;;;21.16;38.08;98592.97;6162219;28;97435;-61
2022/09/08 02:54:54;;;;;;;;;62.17;51.17;;;;;21.13;38.09;98590.78;6161357;28;97225;-58
2022/09/08 02:57:57;;;;;;;;;25.00;23.60;;;;;21.08;37.81;98583.47;6160691;28;98550;-60
2022/09/08 03:01:02;;;;;;;;;49.80;41.80;;;;;21.05;38.70;98586.00;6162253;28;97168;-59
2022/09/08 03:04:06;;;;;;;;;43.40;37.40;;;;;21.01;38.41;98577.53;6160853;28;97580;-57
2022/09/08 03:07:10;;;;;;;;;48.60;41.80;;;;;20.97;38.31;98568.28;6161861;28;96807;-58
2022/09/08 03:10:14;;;;;;;;;51.00;42.00;;;;;;;;6162020;28;97354;-58
2022/09/08 03:13:18;;;;;;;;;43.40;36.80;;;;;20.94;38.25;98557.09;6161096;28;96875;-55
2022/09/08 03:16:22;;;;;;;;;52.00;44.00;;;;;20.95;38.53;98553.25;6159684;28;97249;-60
2022/09/08 03:19:26;;;;;;;;;76.50;73.33;;;;;20.94;38.31;98552.44;6159605;28;98371;-59
2022/09/08 03:22:29;;;;;;;;;70.60;60.60;;;;;20.93;37.96;98553.53;6161581;28;97547;-60
2022/09/08 03:25:37;;;;;;;;;46.20;39.20;;;;;20.89;38.06;98563.47;6160161;28;96707;-55
2022/09/08 03:28:41;;;;;;;;;44.60;38.60;;;;;20.86;37.69;98560.53;6159300;28;97454;-58
2022/09/08 03:31:49;;;;;;;;;38.80;35.20;;;;;20.84;38.05;98558.06;6158115;28;98217;-54
2022/09/08 03:34:52;;;;;;;;;49.00;42.00;;;;;20.82;37.90;98562.22;6158841;28;97478;-55
2022/09/08 03:37:55;;;;;;;;;54.83;45.83;;;;;20.79;38.00;98560.06;6160335;28;98629;-61
2022/09/08 03:40:59;;;;;;;;;53.80;45.20;;;;;20.80;38.12;98559.78;6161597;28;97068;-53
2022/09/08 03:44:03;;;;;;;;;47.80;40.40;;;;;20.83;38.18;98561.09;6159962;28;96555;-54
2022/09/08 03:47:10;;;;;;;;;60.33;50.00;;;;;20.81;38.18;98557.84;6160720;28;97070;-62
2022/09/08 03:50:15;;;;;;;;;51.50;43.25;;;;;20.77;38.20;98561.16;6159047;28;97520;-55
2022/09/08 03:53:19;;;;;;;;;61.60;50.20;;;;;20.72;38.37;98552.22;6154299;28;97267;-60
2022/09/08 03:56:22;;;;;;;;;57.60;48.40;;;;;20.73;38.13;98576.56;6158142;28;97462;-55
2022/09/08 03:59:25;;;;;;;;;45.40;39.40;;;;;20.69;38.38;98567.31;6155601;28;97406;-54
2022/09/08 04:02:31;;;;;;;;;52.33;44.50;;;;;20.71;37.96;98580.72;6158423;28;98292;-51
2022/09/08 04:05:34;;;;;;;;;55.80;46.80;;;;;20.71;37.94;98581.53;6159787;28;97268;-57
2022/09/08 04:08:38;;;;;;;;;69.20;59.00;;;;;20.72;38.21;98565.94;6160556;28;97641;-58
2022/09/08 04:11:41;;;;;;;;;60.33;49.67;;;;;20.74;37.93;98564.50;6160533;28;97231;-57
2022/09/08 04:14:48;;;;;;;;;54.50;45.50;;;;;20.72;38.06;98563.97;6160552;28;97761;-56
2022/09/08 04:17:55;;;;;;;;;47.60;40.80;;;;;20.62;38.28;98572.34;6160445;28;97499;-54
2022/09/08 04:21:00;;;;;;;;;44.83;38.50;;;;;20.66;38.28;98567.91;6159165;28;96860;-55
2022/09/08 04:24:03;;;;;;;;;52.00;44.00;;;;;20.68;38.25;98568.41;6158904;28;97366;-56
2022/09/08 04:27:06;;;;;;;;;41.20;36.60;;;;;20.66;38.07;98570.66;6159700;28;97069;-55
2022/09/08 04:30:11;;;;;;;;;42.60;37.00;;;;;20.67;38.21;98568.75;6159290;28;97155;-52
2022/09/08 04:33:16;;;;;;;;;60.50;50.00;;;;;20.66;38.12;98572.56;6158651;28;96845;-58
2022/09/08 04:36:22;;;;;;;;;22.50;22.00;;;;;20.63;38.50;98573.16;6159230;28;97508;-55
2022/09/08 04:39:29;;;;;;;;;47.20;40.20;;;;;20.62;38.36;98566.06;6159582;28;97492;-54
2022/09/08 04:42:33;;;;;;;;;70.50;61.50;;;;;20.61;38.18;98561.69;6161378;28;96915;-57
2022/09/08 04:45:36;;;;;;;;;42.80;36.60;;;;;20.66;38.29;98565.19;6161536;28;97485;-55
2022/09/08 04:48:42;;;;;;;;;40.50;35.00;;;;;20.69;38.37;98559.09;6161569;28;97528;-56
2022/09/08 04:51:46;;;;;;;;;53.00;44.00;;;;;20.69;38.35;98567.31;6159394;28;96867;-57
2022/09/08 04:54:49;;;;;;;;;50.00;42.33;;;;;20.68;38.04;98557.47;6161648;28;98372;-55
2022/09/08 04:57:53;;;;;;;;;49.60;41.20;;;;;20.73;38.52;98560.13;6161500;28;97146;-56
2022/09/08 05:01:04;;;;;;;;;45.80;39.00;;;;;20.68;37.99;98546.50;6163251;28;98556;-52
2022/09/08 05:04:09;;;;;;;;;58.50;48.67;;;;;20.87;38.08;98575.81;6160375;28;97059;-55
2022/09/08 05:07:13;;;;;;;;;60.33;49.33;;;;;20.88;38.23;98555.53;6157846;28;97540;-55
2022/09/08 05:10:16;;;;;;;;;49.33;42.00;;;;;20.89;38.01;98560.72;6147805;28;97418;-57
2022/09/08 05:13:19;;;;;;;;;51.33;43.83;;;;;20.92;37.96;98556.56;6147284;28;97255;-54
2022/09/08 05:16:25;;;;;;;;;35.00;32.17;;;;;21.01;37.69;98554.81;6160183;28;97031;-57
2022/09/08 05:19:33;;;;;;;;;59.80;49.80;;;;;21.02;37.53;98557.22;6158590;28;97546;-57
2022/09/08 05:22:36;;;;;;;;;70.00;61.00;;;;;21.05;37.69;98570.38;6160500;28;96671;-58
2022/09/08 05:25:45;;;;;;;;;39.17;34.67;;;;;21.08;37.47;98568.94;6145002;28;97449;-57
2022/09/08 05:28:49;;;;;;;;;62.67;51.83;;;;;21.13;37.37;98566.13;6163137;28;96793;-52
2022/09/08 05:31:52;;;;;;;;;61.40;50.60;;;;;21.17;37.76;98561.69;6145026;28;97865;-54
2022/09/08 05:34:57;;;;;;;;;56.83;47.33;;;;;21.24;37.62;98562.16;6155652;28;97481;-57
2022/09/08 05:38:00;;;;;;;;;47.67;40.67;;;;;20.91;37.46;98498.25;6155575;28;97389;-55
2022/09/08 05:41:04;;;;;;;;;53.40;43.60;;;;;21.43;37.22;98559.34;6163700;28;96682;-59
2022/09/08 05:44:10;;;;;;;;;66.50;54.00;;;;;21.47;37.39;98560.38;6163084;28;96410;-56
2022/09/08 05:47:14;;;;;;;;;61.40;50.20;;;;;21.54;37.47;98571.78;6147016;28;96499;-56
2022/09/08 05:50:18;;;;;;;;;52.60;44.40;;;;;21.68;37.09;98575.38;6146843;28;96935;-53
2022/09/08 05:53:22;;;;;;;;;63.50;52.50;;;;;21.77;36.73;98584.53;6154505;28;96810;-54
2022/09/08 05:56:25;;;;;;;;;57.50;47.67;;;;;21.91;36.98;98582.63;6155328;28;97578;-54
2022/09/08 05:59:28;;;;;;;;;48.00;40.60;;;;;22.06;36.92;98572.50;6159201;28;97740;-56
2022/09/08 06:02:32;;;;;;;;;39.80;35.80;;;;;22.19;36.72;98569.75;6161220;28;97246;-56
2022/09/08 06:05:37;;;;;;;;;50.00;43.00;;;;;22.37;36.88;98565.31;6167002;28;97279;-56
2022/09/08 06:08:41;;;;;;;;;56.40;46.80;;;;;22.53;36.88;98572.09;6161280;28;97570;-58
2022/09/08 06:11:44;;;;;;;;;62.00;51.00;;;;;22.65;36.44;98564.16;6160974;28;97730;-58
2022/09/08 06:14:48;;;;;;;;;68.00;57.40;;;;;22.71;36.48;98560.19;6161045;28;97230;-54
2022/09/08 06:17:51;;;;;;;;;47.00;39.60;;;;;22.84;36.49;98550.28;6161314;28;97091;-54
2022/09/08 06:20:56;;;;;;;;;63.00;52.00;;;;;22.96;36.49;98550.56;6161817;28;97356;-56
2022/09/08 06:24:02;;;;;;;;;54.80;45.60;;;;;23.10;36.19;98550.50;6161431;28;97662;-55
2022/09/08 06:27:11;;;;;;;;;49.17;42.17;;;;;23.29;35.98;98551.97;6153483;28;98100;-57
2022/09/08 06:30:18;;;;;;;;;58.00;48.00;;;;;23.44;36.02;98553.50;6160856;28;98112;-57
2022/09/08 06:33:29;;;;;;;;;67.20;56.60;;;;;23.50;36.06;98521.22;6161198;28;97480;-55
2022/09/08 06:36:40;;;;;;;;;50.60;43.00;;;;;23.72;35.62;98532.16;6151492;28;97338;-58
2022/09/08 06:39:49;;;;;;;;;46.20;38.60;;;;;23.90;35.68;98541.31;6160033;28;98087;-57
2022/09/08 06:42:59;;;;;;;;;49.00;40.20;;;;;24.06;35.55;98535.09;6157427;28;97452;-58
2022/09/08 06:46:08;;;;;;;;;61.80;50.60;;;;;24.14;35.50;98530.75;6150274;28;97394;-55
2022/09/08 06:49:12;;;;;;;;;44.40;37.80;;;;;24.09;35.18;98509.66;6160584;28;98197;-53
2022/09/08 06:52:25;;;;;;;;;49.25;41.75;;;;;24.47;35.06;98543.03;6159160;28;96759;-55
2022/09/08 06:55:40;;;;;;;;;49.00;41.00;;;;;24.66;35.25;98542.72;6139922;28;97131;-54
2022/09/08 06:58:46;;;;;;;;;42.40;37.00;;;;;24.68;35.01;98518.41;6148336;28;97625;-58
2022/09/08 07:02:02;;;;;;;;;51.20;42.60;;;;;25.00;34.90;98537.28;6159027;28;97568;-55
2022/09/08 07:05:17;;;;;;;;;52.00;44.00;;;;;25.21;34.97;98544.91;6159943;28;96933;-54
2022/09/08 07:08:39;;;;;;;;;55.00;45.00;;;;;25.35;35.14;98535.31;6150630;28;97633;-52
2022/09/08 07:11:51;;;;;;;;;44.80;39.00;;;;;25.46;34.87;98541.31;6158823;28;97146;-56
2022/09/08 07:15:10;;;;;;;;;31.40;27.20;;;;;25.58;34.95;98537.88;6157884;28;97188;-54
2022/09/08 07:18:21;;;;;;;;;49.00;40.60;;;;;25.70;34.68;98546.31;6158062;28;96819;-59
2022/09/08 07:21:31;;;;;;;;;55.40;46.00;;;;;25.82;34.39;98533.44;6153959;28;97476;-53
2022/09/08 07:24:41;;;;;;;;;49.00;42.00;;;;;26.01;35.14;98523.94;6159987;28;97193;-58
2022/09/08 07:27:48;;;;;;;;;48.75;40.75;;;;;26.17;34.51;98516.72;6148161;28;97138;-52
2022/09/08 07:30:57;;;;;;;;;47.75;40.00;;;;;26.36;34.85;98514.34;6157429;28;97567;-57
2022/09/08 07:34:05;;;;;;;;;45.60;39.00;;;;;26.63;34.40;98513.84;6160506;28;97533;-53
2022/09/08 07:37:18;;;;;;;;;78.00;73.67;;;;;26.96;34.24;98515.94;6157393;28;97385;-56
2022/09/08 07:40:39;;;;;;;;;50.00;42.00;;;;;27.26;33.90;98514.69;6159957;28;97582;-56
2022/09/08 07:43:42;;;;;;;;;46.50;39.50;;;;;27.55;33.14;98516.53;6158127;28;97152;-59
2022/09/08 07:47:15;;;;;;;;;40.60;35.00;;;;;27.43;33.34;98448.06;6150520;28;97284;-57
2022/09/08 07:50:53;;;;;;;;;42.40;36.40;;;;;28.19;32.92;98513.19;6156363;28;97535;-58
2022/09/08 07:54:11;;;;;;;;;48.20;40.20;;;;;28.48;32.80;98514.91;6155870;28;97112;-59
2022/09/08 07:57:24;;;;;;;;;53.20;44.60;;;;;28.59;32.43;98518.84;6153247;28;97513;-57
2022/09/08 08:00:51;;;;;;;;;32.00;29.40;;;;;28.68;32.51;98522.28;6157715;28;96750;-58
2022/09/08 08:04:14;;;;;;;;;49.00;41.75;;;;;28.70;31.88;98522.72;6157079;28;97370;-56
2022/09/08 08:07:23;;;;;;;;;50.33;42.67;;;;;28.82;31.62;98519.97;6153589;28;96968;-55
2022/09/08 08:10:31;;;;;;;;;40.50;35.00;;;;;28.89;31.78;98511.84;6158536;28;97429;-55
2022/09/08 08:13:56;;;;;;;;;55.20;45.80;;;;;28.99;32.26;98505.81;6158606;28;97491;-59
2022/09/08 08:17:17;;;;;;;;;52.40;44.00;;;;;29.14;31.87;98516.16;6163378;28;96703;-57
2022/09/08 08:20:29;;;;;;;;;51.50;43.25;;;;;29.23;31.44;98500.16;6160380;28;97449;-57
2022/09/08 08:23:57;;;;;;;;;44.00;38.00;;;;;29.37;32.54;98497.00;6162459;28;97444;-59
2022/09/08 08:27:10;;;;;;;;;45.00;38.00;;;;;29.52;32.01;98487.06;6159791;28;97482;-57
2022/09/08 08:30:18;;;;;;;;;47.00;39.00;;;;;29.72;31.63;98486.03;6162048;28;97629;-57
2022/09/08 08:33:27;;;;;;;;;52.50;44.00;;;;;29.91;31.59;98485.38;6159516;28;97363;-59
2022/09/08 08:36:36;;;;;;;;;32.50;30.25;;;;;30.16;31.50;98491.53;6162925;28;98339;-57
2022/09/08 08:39:45;;;;;;;;;42.25;36.00;;;;;30.31;30.59;98485.13;6152075;28;97082;-55
2022/09/08 08:42:58;;;;;;;;;47.60;40.20;;;;;30.43;30.94;98488.63;6160662;28;97738;-58
2022/09/08 08:46:28;;;;;;;;;43.60;37.00;;;;;30.53;30.93;98473.38;6153528;28;97474;-59
2022/09/08 08:50:05;;;;;;;;;47.75;41.00;;;;;30.71;30.43;98470.97;6149836;28;97397;-58
2022/09/08 08:53:23;;;;;;;;;46.67;40.00;;;;;30.97;30.53;98457.22;6160736;28;97404;-54
2022/09/08 08:56:42;;;;;;;;;44.40;37.00;;;;;31.27;30.49;98452.69;6158892;28;97404;-55
2022/09/08 09:00:03;;;;;;;;;46.60;39.20;;;;;31.62;29.86;98452.56;6158833;28;97208;-56
2022/09/08 09:03:40;;;;;;;;;40.00;34.50;;;;;32.01;29.32;98455.22;6161082;28;98139;-60
2022/09/08 09:07:26;;;;;;;;;29.20;28.40;;;;;32.34;29.20;98449.78;6153276;28;97049;-58
2022/09/08 09:10:49;;;;;;;;;44.40;38.20;;;;;32.53;28.44;98454.44;6155203;28;97570;-56
2022/09/08 09:14:24;;;;;;;;;36.80;33.20;;;;;32.42;28.97;98439.53;6148502;28;97257;-56
2022/09/08 09:17:46;;;;;;;;;48.60;41.00;;;;;32.53;28.61;98443.28;6150570;28;97302;-53
2022/09/08 09:20:57;;;;;;;;;27.20;26.40;;;;;32.61;29.26;98442.19;6160270;28;96772;-61
2022/09/08 09:24:09;;;;;;;;;44.40;37.80;;;;;32.73;28.67;98452.34;6163338;28;97247;-57
2022/09/08 09:27:18;;;;;;;;;42.00;36.00;;;;;32.79;28.74;98448.88;6145680;28;96961;-56
2022/09/08 09:30:24;;;;;;;;;47.00;39.60;;;;;32.94;28.81;98442.25;6164163;28;96866;-58
2022/09/08 09:33:53;;;;;;;;;36.75;33.50;;;;;33.27;28.28;98438.69;6163009;28;96827;-61
2022/09/08 09:37:17;;;;;;;;;31.50;30.75;;;;;33.67;28.14;98440.72;6156598;28;97705;-58
2022/09/08 09:40:51;;;;;;;;;30.75;30.00;;;;;33.98;27.94;98438.56;6161856;28;97948;-60
2022/09/08 09:44:11;;;;;;;;;30.60;30.00;;;;;33.96;27.96;98413.81;6161878;28;97452;-58
2022/09/08 09:47:36;;;;;;;;;34.60;32.00;;;;;34.16;27.90;98423.50;6161474;28;97395;-61
2022/09/08 09:51:06;;;;;;;;;25.20;25.00;;;;;34.32;27.57;98418.47;6162197;28;97406;-57
2022/09/08 09:54:53;;;;;;;;;28.00;25.00;;;;;34.66;27.29;98418.25;6157754;28;97029;-57
2022/09/08 09:58:37;;;;;;;;;28.75;26.25;;;;;34.95;27.40;98416.38;6139009;28;97211;-58
2022/09/08 10:01:57;;;;;;;;;26.20;24.20;;;;;35.18;27.37;98423.31;6160051;28;96708;-64
2022/09/08 10:05:39;;;;;;;;;23.60;23.00;;;;;35.47;26.90;98412.97;6161159;28;97678;-64
2022/09/08 10:09:13;;;;;;;;;30.00;28.60;;;;;35.80;26.74;98411.00;6156494;28;96468;-59
2022/09/08 10:12:55;;;;;;;;;26.00;24.75;;;;;35.91;26.49;98409.00;6147000;28;97259;-63
2022/09/08 10:16:37;;;;;;;;;30.75;29.25;;;;;36.07;26.41;98403.75;6157724;28;97902;-60
2022/09/08 10:20:18;;;;;;;;;26.80;25.80;;;;;36.30;26.74;98403.38;6091161;28;97342;-65
2022/09/08 10:23:58;;;;;;;;;26.75;24.00;;;;;36.54;26.88;98401.69;6138351;28;97503;-62
2022/09/08 10:27:54;;;;;;;;;30.00;26.60;;;;;36.75;26.73;98405.25;6141639;28;96743;-61
2022/09/08 10:31:41;;;;;;;;;28.50;26.50;;;;;36.59;26.63;98370.41;6142900;28;97296;-59
2022/09/08 10:35:07;;;;;;;;;28.40;27.80;;;;;36.90;26.56;98389.13;6151651;28;98751;-62
2022/09/08 10:38:25;;;;;;;;;26.75;25.75;;;;;37.06;26.44;98383.84;6160427;28;97507;-55
2022/09/08 10:42:15;;;;;;;;;16.00;16.00;;;;;37.30;26.71;98390.53;6148970;28;97226;-57
2022/09/08 10:45:57;;;;;;;;;26.50;25.50;;;;;37.55;26.31;98373.53;6088060;28;97460;-57
2022/09/08 10:49:37;;;;;;;;;27.60;25.80;;;;;37.60;26.42;98387.94;6160008;28;97421;-61
2022/09/08 10:52:51;;;;;;;;;26.00;25.60;;;;;37.60;25.62;98373.88;6168699;28;97202;-56
2022/09/08 10:56:05;;;;;;;;;20.60;18.20;;;;;37.54;26.07;98375.53;6159839;28;97108;-57
2022/09/08 10:59:39;;;;;;;;;22.20;22.20;;;;;37.51;26.70;98367.09;6160708;28;97458;-58
2022/09/08 11:03:22;;;;;;;;;24.00;23.00;;;;;37.68;26.50;98369.03;6156888;28;97560;-61
2022/09/08 11:06:37;;;;;;;;;20.00;18.25;;;;;37.91;25.86;98371.22;6146732;28;97428;-57
2022/09/08 11:09:51;;;;;;;;;24.20;23.20;;;;;38.07;25.86;98365.88;6145470;28;97416;-58
2022/09/08 11:13:26;;;;;;;;;22.00;21.00;;;;;38.20;26.08;98364.13;6152461;28;97422;-59
2022/09/08 11:16:59;;;;;;;;;22.75;22.75;;;;;38.31;25.78;98356.38;6151849;28;97727;-59
2022/09/08 11:20:11;;;;;;;;;23.40;23.40;;;;;38.36;26.62;98346.66;6144434;28;97457;-56
2022/09/08 11:23:27;;;;;;;;;30.00;28.00;;;;;38.46;25.69;98351.41;6152947;28;99373;-60
2022/09/08 11:26:49;;;;;;;;;25.40;24.40;;;;;38.47;25.24;98353.78;6152327;28;98370;-56
2022/09/08 11:30:11;;;;;;;;;26.20;24.80;;;;;38.55;25.98;98346.84;6157009;28;97714;-58
2022/09/08 11:33:28;;;;;;;;;23.40;22.00;;;;;38.65;25.96;98341.50;6158182;28;97823;-59
2022/09/08 11:36:52;;;;;;;;;22.00;21.80;;;;;38.68;25.13;98335.00;6158871;28;97345;-57
2022/09/08 11:40:15;;;;;;;;;24.50;22.50;;;;;38.50;25.14;98324.78;6157967;28;97822;-60
2022/09/08 11:43:29;;;;;;;;;25.00;23.00;;;;;38.31;24.94;98311.31;6158174;28;97294;-61
2022/09/08 11:46:54;;;;;;;;;23.20;22.60;;;;;38.17;25.51;98330.38;6158035;28;97324;-58
2022/09/08 11:50:33;;;;;;;;;22.75;22.25;;;;;37.91;25.94;98329.00;6156884;28;97366;-59
2022/09/08 11:54:09;;;;;;;;;26.50;25.00;;;;;37.85;26.77;98325.03;6158349;28;98093;-65
2022/09/08 11:57:40;;;;;;;;;23.50;22.00;;;;;37.72;26.65;98300.25;6155594;28;98189;-62
2022/09/08 12:01:07;;;;;;;;;27.60;27.40;;;;;37.91;26.28;98312.13;6153856;28;97410;-60
2022/09/08 12:04:41;;;;;;;;;32.20;30.00;;;;;37.81;25.85;98311.00;6156316;28;97152;-63
2022/09/08 12:08:05;;;;;;;;;26.40;24.80;;;;;37.59;26.24;98312.41;6168108;28;98255;-61
2022/09/08 12:11:27;;;;;;;;;28.40;28.40;;;;;37.33;26.99;98301.78;6157140;28;96982;-57
2022/09/08 12:14:42;;;;;;;;;28.80;27.40;;;;;37.21;27.15;98298.25;6158829;28;96686;-62
2022/09/08 12:18:03;;;;;;;;;25.80;24.20;;;;;37.05;26.78;98292.31;6157820;28;97417;-59
2022/09/08 12:21:37;;;;;;;;;35.00;32.00;;;;;36.94;27.34;98291.59;6155466;28;96977;-58
2022/09/08 12:25:02;;;;;;;;;33.00;29.40;;;;;36.81;27.81;98302.50;6154720;28;97851;-63
2022/09/08 12:28:42;;;;;;;;;28.50;28.50;;;;;36.81;27.99;98293.25;6153468;28;97478;-62
2022/09/08 12:32:01;;;;;;;;;36.67;32.00;;;;;36.72;27.62;98296.53;6148956;28;98601;-58
2022/09/08 12:35:24;;;;;;;;;41.25;35.50;;;;;36.64;27.84;98292.16;6151126;28;97569;-58
2022/09/08 12:39:04;;;;;;;;;33.20;31.20;;;;;36.48;28.07;98272.16;6158842;28;96668;-59
2022/09/08 12:42:28;;;;;;;;;34.40;32.40;;;;;36.46;27.94;98278.16;6156248;28;97856;-59
2022/09/08 12:45:49;;;;;;;;;29.80;28.80;;;;;36.41;28.21;98269.38;6157133;28;97474;-55
2022/09/08 12:48:59;;;;;;;;;28.00;27.60;;;;;36.26;28.73;98260.25;6159536;28;96878;-57
2022/09/08 12:52:08;;;;;;;;;27.00;26.00;;;;;36.13;28.72;98252.63;6159841;28;97280;-54
2022/09/08 12:55:22;;;;;;;;;30.00;28.00;;;;;35.87;29.00;98253.94;6157998;28;97486;-59
2022/09/08 12:58:33;;;;;;;;;33.20;31.00;;;;;35.67;29.25;98259.19;6159215;28;96498;-59
2022/09/08 13:01:42;;;;;;;;;30.20;29.40;;;;;35.50;29.91;98251.56;6159830;28;96968;-56
2022/09/08 13:05:07;;;;;;;;;40.40;35.40;;;;;35.41;29.67;98249.16;6160722;28;97423;-56
2022/09/08 13:08:23;;;;;;;;;28.00;27.80;;;;;35.42;29.69;98239.56;6163522;28;96635;-58
2022/09/08 13:11:50;;;;;;;;;29.00;27.75;;;;;35.41;29.92;98235.16;6161647;28;97929;-59
2022/09/08 13:15:03;;;;;;;;;24.40;24.40;;;;;35.45;29.58;98240.75;6164113;28;97496;-59
2022/09/08 13:18:25;;;;;;;;;34.00;32.00;;;;;35.40;29.15;98239.16;6163558;28;96450;-58
2022/09/08 13:21:46;;;;;;;;;41.00;35.75;;;;;35.33;29.37;98230.78;6151665;28;97399;-59
2022/09/08 13:24:59;;;;;;;;;30.50;28.50;;;;;35.15;29.40;98227.94;6165867;28;97499;-58
2022/09/08 13:28:19;;;;;;;;;40.80;35.60;;;;;35.03;29.86;98228.34;6163393;28;99282;-57
2022/09/08 13:31:33;;;;;;;;;33.00;30.00;;;;;35.00;30.00;98229.13;6162691;28;97123;-56
2022/09/08 13:35:01;;;;;;;;;30.20;29.80;;;;;34.96;29.85;98228.31;6164305;28;96456;-58
2022/09/08 13:38:35;;;;;;;;;37.00;33.50;;;;;34.85;29.81;98201.50;6164041;28;96564;-56
2022/09/08 13:41:58;;;;;;;;;37.20;33.00;;;;;34.89;30.14;98199.53;6163636;28;97274;-59
2022/09/08 13:45:23;;;;;;;;;32.40;30.00;;;;;35.05;30.36;98200.72;6162316;28;97045;-63
2022/09/08 13:48:47;;;;;;;;;31.00;30.00;;;;;35.07;29.50;98192.72;6164468;28;97080;-57
2022/09/08 13:52:17;;;;;;;;;32.00;30.00;;;;;35.05;29.92;98189.50;6165086;28;97229;-56
2022/09/08 13:56:00;;;;;;;;;31.00;29.40;;;;;35.07;29.66;98184.31;6142775;28;97383;-59
2022/09/08 13:59:15;;;;;;;;;28.00;27.20;;;;;35.02;29.83;98179.13;6088627;28;96777;-53
2022/09/08 14:02:29;;;;;;;;;32.20;31.20;;;;;34.88;30.18;98179.13;6086917;28;97510;-52
2022/09/08 14:05:41;;;;;;;;;26.00;25.80;;;;;34.80;30.54;98171.88;6071194;28;97565;-53
2022/09/08 14:08:52;;;;;;;;;30.40;29.00;;;;;34.64;30.16;98175.06;6088081;28;98067;-54
2022/09/08 14:12:17;;;;;;;;;38.40;34.40;;;;;34.55;30.24;98162.66;6088517;28;96837;-58
2022/09/08 14:15:26;;;;;;;;;29.25;28.25;;;;;34.46;30.42;98162.22;6084427;28;97056;-58
2022/09/08 14:18:42;;;;;;;;;30.50;28.50;;;;;34.36;30.80;98147.03;6073869;28;96719;-60
2022/09/08 14:21:48;;;;;;;;;31.00;29.80;;;;;34.32;31.05;98137.81;6089620;28;97342;-57
2022/09/08 14:25:03;;;;;;;;;30.00;29.00;;;;;34.16;30.74;98138.16;6089804;28;97146;-62
2022/09/08 14:28:16;;;;;;;;;32.00;30.50;;;;;34.15;31.11;98132.97;6085696;28;97658;-57
2022/09/08 14:31:26;;;;;;;;;29.40;28.40;;;;;34.16;31.33;98132.56;6162080;28;97178;-57
2022/09/08 14:34:35;;;;;;;;;31.50;30.25;;;;;34.01;31.25;98130.94;6164592;28;96700;-58
2022/09/08 14:37:51;;;;;;;;;34.00;32.00;;;;;33.94;31.11;98128.13;6162582;28;98324;-56
2022/09/08 14:41:06;;;;;;;;;35.00;32.50;;;;;33.80;31.50;98131.66;6163522;28;96831;-57
2022/09/08 14:44:43;;;;;;;;;34.00;32.20;;;;;33.74;31.74;98135.22;6164551;28;97070;-57
2022/09/08 14:48:10;;;;;;;;;24.80;22.00;;;;;33.47;31.75;98115.13;6163571;28;97956;-59
2022/09/08 14:51:30;;;;;;;;;45.40;39.00;;;;;33.48;32.16;98133.47;6164626;28;97038;-59
2022/09/08 14:54:50;;;;;;;;;41.20;36.00;;;;;33.41;32.42;98137.03;6163645;28;97456;-57
2022/09/08 14:58:15;;;;;;;;;39.00;33.00;;;;;33.42;32.49;98123.88;6166611;28;97410;-58